createdAt,value
2023-05-09T00:02:00.268Z,75.26
2023-05-09T00:04:26.870Z,74.62
2023-05-09T00:06:53.404Z,73.23
2023-05-09T00:09:19.906Z,74.42
2023-05-09T00:11:46.456Z,74.60
2023-05-09T00:14:13.901Z,73.03
2023-05-09T00:16:40.797Z,74.03
2023-05-09T00:19:07.497Z,75.15
2023-05-09T00:21:34.189Z,75.12
2023-05-09T00:24:01.072Z,74.40
2023-05-09T00:26:27.814Z,74.88
2023-05-09T00:28:54.294Z,75.29
2023-05-09T00:31:21.157Z,75.92
2023-05-09T00:33:47.630Z,75.32
2023-05-09T00:36:14.089Z,75.64
2023-05-09T00:38:40.614Z,74.61
2023-05-09T00:41:07.086Z,75.03
2023-05-09T00:43:33.886Z,73.64
2023-05-09T00:46:00.413Z,75.53
2023-05-09T00:48:26.942Z,76.09
2023-05-09T00:50:53.479Z,76.64
2023-05-09T00:53:20.687Z,76.37
2023-05-09T00:55:47.242Z,78.11
2023-05-09T00:58:13.854Z,76.17
2023-05-09T01:00:40.690Z,76.85
2023-05-09T01:03:07.362Z,76.63
2023-05-09T01:05:40.882Z,76.75
2023-05-09T01:08:10.795Z,77.09
2023-05-09T01:10:48.262Z,77.55
2023-05-09T01:13:29.934Z,77.21
2023-05-09T01:15:56.260Z,78.93
2023-05-09T01:18:46.037Z,79.56
2023-05-09T01:21:16.181Z,78.51
2023-05-09T01:23:45.494Z,79.27
2023-05-09T01:26:32.877Z,79.26
2023-05-09T01:29:32.436Z,78.80
2023-05-09T01:31:59.496Z,78.43
2023-05-09T01:34:26.835Z,78.73
2023-05-09T01:36:55.834Z,77.57
2023-05-09T01:39:22.412Z,76.84
2023-05-09T01:41:49.722Z,77.13
2023-05-09T01:44:16.363Z,77.40
2023-05-09T01:46:43.066Z,76.92
2023-05-09T01:49:09.742Z,77.26
2023-05-09T01:51:36.725Z,77.46
2023-05-09T01:54:03.183Z,77.35
2023-05-09T01:56:29.645Z,76.55
2023-05-09T01:58:56.198Z,77.86
2023-05-09T02:01:22.714Z,77.94
2023-05-09T02:03:52.436Z,77.95
2023-05-09T02:06:20.712Z,78.40
2023-05-09T02:08:47.242Z,78.84
2023-05-09T02:11:13.699Z,79.01
2023-05-09T02:13:40.170Z,80.02
2023-05-09T02:16:07.779Z,80.20
2023-05-09T02:18:35.389Z,80.76
2023-05-09T02:21:02.226Z,81.08
2023-05-09T02:23:28.722Z,82.87
2023-05-09T02:25:55.204Z,85.20
2023-05-09T02:28:22.861Z,87.85
2023-05-09T02:30:49.835Z,83.95
2023-05-09T02:33:16.612Z,88.36
2023-05-09T02:35:44.958Z,91.65
2023-05-09T02:38:11.695Z,94.47
2023-05-09T02:40:38.158Z,87.15
2023-05-09T02:43:04.629Z,85.83
2023-05-09T02:45:31.200Z,83.89
2023-05-09T02:47:57.681Z,82.47
2023-05-09T02:50:24.211Z,81.52
2023-05-09T02:52:50.809Z,82.60
2023-05-09T02:55:17.491Z,82.65
2023-05-09T02:57:44.226Z,81.42
2023-05-09T03:00:11.545Z,81.89
2023-05-09T03:02:38.233Z,82.14
2023-05-09T03:05:05.095Z,82.74
2023-05-09T03:07:31.561Z,84.41
2023-05-09T03:09:58.023Z,85.92
2023-05-09T03:12:24.526Z,89.24
2023-05-09T03:14:51.009Z,90.17
2023-05-09T03:17:21.143Z,91.36
2023-05-09T03:19:48.309Z,92.13
2023-05-09T03:22:15.039Z,91.86
2023-05-09T03:24:41.525Z,90.24
2023-05-09T03:27:08.022Z,90.37
2023-05-09T03:29:34.502Z,90.75
2023-05-09T03:32:00.993Z,88.98
2023-05-09T03:34:27.465Z,88.58
2023-05-09T03:36:53.937Z,89.10
2023-05-09T03:39:20.481Z,89.53
2023-05-09T03:41:46.966Z,90.85
2023-05-09T03:44:13.431Z,91.01
2023-05-09T03:46:39.996Z,90.92
2023-05-09T03:49:06.503Z,91.02
2023-05-09T03:51:32.977Z,90.03
2023-05-09T03:53:59.872Z,89.38
2023-05-09T03:56:26.739Z,89.35
2023-05-09T03:58:53.219Z,91.21
2023-05-09T04:01:19.697Z,88.58
2023-05-09T04:03:46.269Z,88.52
2023-05-09T04:06:12.853Z,88.87
2023-05-09T04:08:39.343Z,89.44
2023-05-09T04:11:06.093Z,88.32
2023-05-09T04:13:33.695Z,89.35
2023-05-09T04:16:00.203Z,89.72
2023-05-09T04:18:26.722Z,88.64
2023-05-09T04:20:53.521Z,90.61
2023-05-09T04:23:20.010Z,87.96
2023-05-09T04:25:46.511Z,86.07
2023-05-09T04:28:12.978Z,86.49
2023-05-09T04:30:39.483Z,87.37
2023-05-09T04:33:06.250Z,86.86
2023-05-09T04:35:32.796Z,87.04
2023-05-09T04:37:59.261Z,88.41
2023-05-09T04:40:27.064Z,88.74
2023-05-09T04:42:53.648Z,89.08
2023-05-09T04:45:20.194Z,88.52
2023-05-09T04:47:46.731Z,85.59
2023-05-09T04:50:13.420Z,84.11
2023-05-09T04:52:39.946Z,81.61
2023-05-09T04:55:06.924Z,80.43
2023-05-09T04:57:33.455Z,79.88
2023-05-09T04:59:59.955Z,79.65
2023-05-09T05:02:26.462Z,79.18
2023-05-09T05:05:00.125Z,77.64
2023-05-09T05:07:33.015Z,79.06
2023-05-09T05:09:59.501Z,78.16
2023-05-09T05:12:25.969Z,76.94
2023-05-09T05:14:52.820Z,76.19
2023-05-09T05:17:19.352Z,77.15
2023-05-09T05:19:45.826Z,79.26
2023-05-09T05:22:12.312Z,80.60
2023-05-09T05:24:38.777Z,79.04
2023-05-09T05:27:05.248Z,77.81
2023-05-09T05:29:32.028Z,78.63
2023-05-09T05:31:58.568Z,78.53
2023-05-09T05:34:25.075Z,78.96
2023-05-09T05:36:51.820Z,78.15
2023-05-09T05:39:18.293Z,80.87
2023-05-09T05:41:44.788Z,80.28
2023-05-09T05:44:11.260Z,82.49
2023-05-09T05:46:37.751Z,83.61
2023-05-09T05:49:04.281Z,84.78
2023-05-09T05:51:31.377Z,84.64
2023-05-09T05:53:57.889Z,82.87
2023-05-09T05:56:24.365Z,81.10
2023-05-09T05:58:50.902Z,80.45
2023-05-09T06:01:17.387Z,82.67
2023-05-09T06:03:44.162Z,80.63
2023-05-09T06:06:10.873Z,78.81
2023-05-09T06:08:37.362Z,78.85
2023-05-09T06:11:05.784Z,75.22
2023-05-09T06:13:32.283Z,77.67
2023-05-09T06:16:07.769Z,78.11
2023-05-09T06:18:39.965Z,77.68
2023-05-09T06:21:06.774Z,76.35
2023-05-09T06:23:33.291Z,75.20
2023-05-09T06:25:59.798Z,75.01
2023-05-09T06:28:26.905Z,75.88
2023-05-09T06:30:53.414Z,75.23
2023-05-09T06:33:19.923Z,72.51
2023-05-09T06:35:46.422Z,73.12
2023-05-09T06:38:12.975Z,73.38
2023-05-09T06:40:39.475Z,71.50
2023-05-09T06:43:06.442Z,72.11
2023-05-09T06:45:32.947Z,73.24
2023-05-09T06:47:59.731Z,73.03
2023-05-09T06:50:26.429Z,72.23
2023-05-09T06:52:52.909Z,70.27
2023-05-09T06:55:19.395Z,71.20
2023-05-09T06:57:45.895Z,72.33
2023-05-09T07:00:12.983Z,71.40
2023-05-09T07:02:42.009Z,70.76
2023-05-09T07:05:09.943Z,68.72
2023-05-09T07:07:36.466Z,69.47
2023-05-09T07:10:11.146Z,68.56
2023-05-09T07:12:38.801Z,69.61
2023-05-09T07:15:06.387Z,68.69
2023-05-09T07:17:32.909Z,69.45
2023-05-09T07:19:59.422Z,68.05
2023-05-09T07:22:26.004Z,70.56
2023-05-09T07:24:52.588Z,69.79
2023-05-09T07:27:19.139Z,72.14
2023-05-09T07:29:45.696Z,70.13
2023-05-09T07:32:12.251Z,70.34
2023-05-09T07:34:38.783Z,70.14
2023-05-09T07:37:05.275Z,68.91
2023-05-09T07:39:32.055Z,72.13
2023-05-09T07:41:58.642Z,68.79
2023-05-09T07:44:25.261Z,70.48
2023-05-09T07:46:51.747Z,67.82
2023-05-09T07:49:18.349Z,69.25
2023-05-09T07:51:44.857Z,69.52
2023-05-09T07:54:11.329Z,69.07
2023-05-09T07:56:37.810Z,68.23
2023-05-09T07:59:04.284Z,69.52
2023-05-09T08:01:30.834Z,69.90
2023-05-09T08:03:57.420Z,69.86
2023-05-09T08:06:23.997Z,71.05
2023-05-09T08:08:50.602Z,71.42
2023-05-09T08:11:17.426Z,71.68
2023-05-09T08:13:44.014Z,71.15
2023-05-09T08:16:10.706Z,73.68
2023-05-09T08:18:37.194Z,73.10
2023-05-09T08:21:03.782Z,74.04
2023-05-09T08:23:30.385Z,72.73
2023-05-09T08:25:57.309Z,75.58
2023-05-09T08:28:24.230Z,75.09
2023-05-09T08:30:51.562Z,77.86
2023-05-09T08:33:18.057Z,74.46
2023-05-09T08:35:44.544Z,73.59
2023-05-09T08:38:11.342Z,74.72
2023-05-09T08:40:37.953Z,75.62
2023-05-09T08:43:07.346Z,73.85
2023-05-09T08:45:35.874Z,73.87
2023-05-09T08:48:06.568Z,74.99
2023-05-09T08:50:33.225Z,76.40
2023-05-09T08:52:59.717Z,75.54
2023-05-09T08:55:26.291Z,75.57
2023-05-09T08:57:52.801Z,76.50
2023-05-09T09:00:21.007Z,73.76
2023-05-09T09:02:47.984Z,73.26
2023-05-09T09:05:34.209Z,73.50
2023-05-09T09:08:01.047Z,73.33
2023-05-09T09:10:28.899Z,73.51
2023-05-09T09:12:57.275Z,72.72
2023-05-09T09:15:24.231Z,74.60
2023-05-09T09:17:51.435Z,73.58
2023-05-09T09:20:18.511Z,70.75
2023-05-09T09:22:45.058Z,72.75
2023-05-09T09:25:11.643Z,72.17
2023-05-09T09:27:38.136Z,70.83
2023-05-09T09:30:11.414Z,71.95
2023-05-09T09:32:38.576Z,70.47
2023-05-09T09:35:06.999Z,67.38
2023-05-09T09:37:37.388Z,67.92
2023-05-09T09:40:05.143Z,69.43
2023-05-09T09:42:46.775Z,69.18
2023-05-09T09:45:15.389Z,70.22
2023-05-09T09:47:43.156Z,67.61
2023-05-09T09:50:14.124Z,65.90
2023-05-09T09:52:53.084Z,66.04
2023-05-09T09:55:20.214Z,64.79
2023-05-09T09:57:48.068Z,63.95
2023-05-09T10:00:16.734Z,66.89
2023-05-09T10:02:50.723Z,64.84
2023-05-09T10:05:24.469Z,66.40
2023-05-09T10:07:53.734Z,65.77
2023-05-09T10:10:20.529Z,64.77
2023-05-09T10:12:47.023Z,65.32
2023-05-09T10:15:13.533Z,66.29
2023-05-09T10:17:40.222Z,67.07
2023-05-09T10:20:07.259Z,65.55
2023-05-09T10:22:34.215Z,64.49
2023-05-09T10:25:05.595Z,64.63
2023-05-09T10:27:35.071Z,64.47
2023-05-09T10:30:07.763Z,64.33
2023-05-09T10:32:52.231Z,62.41
2023-05-09T10:35:19.936Z,65.75
2023-05-09T10:37:46.440Z,63.58
2023-05-09T10:40:15.739Z,62.82
2023-05-09T10:42:43.458Z,63.94
2023-05-09T10:45:11.218Z,62.38
2023-05-09T10:50:04.586Z,63.96
2023-05-09T10:52:34.226Z,64.01
2023-05-09T10:55:01.679Z,63.89
2023-05-09T10:57:29.077Z,64.72
2023-05-09T10:59:56.451Z,63.92
2023-05-09T11:02:29.132Z,64.74
2023-05-09T11:07:41.503Z,66.33
2023-05-09T11:10:09.279Z,66.52
2023-05-09T11:12:52.467Z,65.83
2023-05-09T11:15:18.944Z,65.40
2023-05-09T11:17:45.494Z,65.77
2023-05-09T11:20:12.036Z,63.20
2023-05-09T11:22:43.181Z,66.12
2023-05-09T11:25:13.794Z,64.57
2023-05-09T11:27:43.925Z,64.19
2023-05-09T11:30:11.999Z,64.50
2023-05-09T11:32:43.960Z,62.53
2023-05-09T11:35:15.358Z,66.42
2023-05-09T11:38:07.010Z,63.93
2023-05-09T11:40:34.241Z,63.88
2023-05-09T11:43:01.155Z,64.93
2023-05-09T11:45:29.441Z,66.34
2023-05-09T11:47:57.237Z,65.26
2023-05-09T11:50:23.948Z,64.74
2023-05-09T11:52:50.760Z,63.56
2023-05-09T11:55:19.095Z,62.17
2023-05-09T11:57:48.149Z,65.43
2023-05-09T12:00:19.175Z,63.18
2023-05-09T12:02:46.221Z,62.56
2023-05-09T12:05:14.564Z,62.78
2023-05-09T12:07:41.234Z,62.49
2023-05-09T12:10:13.165Z,63.14
2023-05-09T12:12:47.172Z,64.15
2023-05-09T12:15:14.173Z,63.53
2023-05-09T12:17:41.883Z,61.86
2023-05-09T12:20:08.941Z,63.87
2023-05-09T12:22:37.349Z,63.99
2023-05-09T12:25:08.578Z,62.51
2023-05-09T12:27:38.920Z,63.08
2023-05-09T12:30:10.210Z,62.70
2023-05-09T12:32:37.752Z,65.07
2023-05-09T12:35:04.423Z,65.91
2023-05-09T12:37:32.489Z,65.83
2023-05-09T12:40:06.144Z,64.36
2023-05-09T12:42:33.349Z,64.85
2023-05-09T12:45:01.538Z,63.79
2023-05-09T12:47:29.283Z,65.45
2023-05-09T12:49:59.464Z,65.39
2023-05-09T12:52:25.854Z,65.31
2023-05-09T12:54:52.939Z,64.07
2023-05-09T12:57:23.253Z,65.05
2023-05-09T12:59:49.794Z,66.60
2023-05-09T13:02:16.379Z,64.45
2023-05-09T13:04:42.924Z,63.55
2023-05-09T13:07:10.308Z,62.64
2023-05-09T13:09:37.008Z,61.65
2023-05-09T13:12:09.910Z,63.02
2023-05-09T13:14:36.443Z,61.58
2023-05-09T13:17:03.007Z,63.21
2023-05-09T13:19:29.948Z,62.94
2023-05-09T13:21:56.493Z,62.98
2023-05-09T13:24:22.989Z,60.74
2023-05-09T13:26:49.459Z,61.28
2023-05-09T13:29:15.954Z,60.28
2023-05-09T13:31:42.422Z,60.33
2023-05-09T13:34:08.924Z,59.23
2023-05-09T13:36:35.637Z,60.87
2023-05-09T13:39:02.128Z,58.24
2023-05-09T13:41:30.742Z,61.04
2023-05-09T13:43:57.218Z,57.11
2023-05-09T13:46:23.718Z,57.54
2023-05-09T13:48:50.255Z,56.92
2023-05-09T13:51:16.733Z,57.30
2023-05-09T13:53:43.220Z,57.15
2023-05-09T13:56:09.996Z,54.71
2023-05-09T13:58:36.771Z,55.60
2023-05-09T14:01:03.416Z,55.62
2023-05-09T14:03:29.962Z,57.17
2023-05-09T14:05:56.558Z,58.21
2023-05-09T14:08:23.184Z,58.21
2023-05-09T14:10:49.688Z,58.34
2023-05-09T14:13:16.237Z,56.12
2023-05-09T14:15:43.083Z,55.35
2023-05-09T14:18:09.672Z,57.44
2023-05-09T14:20:37.462Z,56.44
2023-05-09T14:23:04.037Z,56.67
2023-05-09T14:25:30.555Z,57.68
2023-05-09T14:27:57.959Z,60.49
2023-05-09T14:30:25.647Z,58.37
2023-05-09T14:32:52.208Z,58.29
2023-05-09T14:35:18.757Z,57.79
2023-05-09T14:37:45.576Z,58.40
2023-05-09T14:40:12.452Z,59.02
2023-05-09T14:42:39.021Z,60.62
2023-05-09T14:45:07.222Z,61.15
2023-05-09T14:47:34.314Z,61.46
2023-05-09T14:50:00.921Z,61.58
2023-05-09T14:52:28.731Z,63.26
2023-05-09T14:54:55.323Z,61.31
2023-05-09T14:57:22.305Z,58.66
2023-05-09T14:59:48.865Z,57.79
2023-05-09T15:02:15.353Z,57.87
2023-05-09T15:04:43.734Z,56.42
2023-05-09T15:07:10.422Z,57.05
2023-05-09T15:09:37.841Z,56.11
2023-05-09T15:12:04.381Z,57.54
2023-05-09T15:14:30.946Z,57.44
2023-05-09T15:16:59.946Z,57.12
2023-05-09T15:19:31.034Z,58.34
2023-05-09T15:22:00.638Z,59.78
2023-05-09T15:24:27.401Z,59.09
2023-05-09T15:26:54.252Z,60.11
2023-05-09T15:29:21.790Z,57.93
2023-05-09T15:31:48.796Z,59.13
2023-05-09T15:34:15.519Z,59.91
2023-05-09T15:36:42.032Z,58.91
2023-05-09T15:39:08.550Z,60.20
2023-05-09T15:41:35.056Z,60.71
2023-05-09T15:44:01.556Z,60.75
2023-05-09T15:46:28.323Z,60.68
2023-05-09T15:48:56.102Z,60.37
2023-05-09T15:51:22.699Z,61.20
2023-05-09T15:53:49.904Z,59.66
2023-05-09T15:56:16.414Z,61.33
2023-05-09T15:58:42.919Z,60.61
2023-05-09T16:01:12.848Z,59.90
2023-05-09T16:03:39.575Z,61.33
2023-05-09T16:06:06.274Z,61.60
2023-05-09T16:08:32.765Z,61.96
2023-05-09T16:11:00.875Z,61.24
2023-05-09T16:13:27.582Z,60.58
2023-05-09T16:15:54.180Z,61.78
2023-05-09T16:18:20.720Z,62.26
2023-05-09T16:20:47.207Z,60.59
2023-05-09T16:23:13.870Z,62.30
2023-05-09T16:25:40.363Z,62.58
2023-05-09T16:28:07.158Z,61.59
2023-05-09T16:30:33.785Z,60.54
2023-05-09T16:33:00.519Z,62.19
2023-05-09T16:35:27.142Z,60.71
2023-05-09T16:37:53.615Z,60.74
2023-05-09T16:40:20.457Z,62.64
2023-05-09T16:42:46.995Z,59.27
2023-05-09T16:45:13.488Z,60.86
2023-05-09T16:47:39.992Z,60.84
2023-05-09T16:50:07.369Z,60.02
2023-05-09T16:52:33.861Z,60.59
2023-05-09T16:55:00.452Z,59.93
2023-05-09T16:57:26.917Z,61.91
2023-05-09T16:59:53.520Z,60.14
2023-05-09T17:02:20.055Z,61.93
2023-05-09T17:04:46.666Z,60.79
2023-05-09T17:07:14.416Z,60.79
2023-05-09T17:09:41.091Z,61.36
2023-05-09T17:12:07.791Z,59.68
2023-05-09T17:14:34.315Z,61.61
2023-05-09T17:17:00.864Z,61.12
2023-05-09T17:19:27.378Z,60.43
2023-05-09T17:21:55.982Z,61.82
2023-05-09T17:24:22.475Z,60.73
2023-05-09T17:26:50.183Z,61.94
2023-05-09T17:29:16.690Z,62.11
2023-05-09T17:31:43.274Z,62.76
2023-05-09T17:34:09.766Z,63.60
2023-05-09T17:36:36.246Z,63.51
2023-05-09T17:39:02.727Z,61.05
2023-05-09T17:41:29.201Z,61.17
2023-05-09T17:43:58.280Z,63.28
2023-05-09T17:46:24.927Z,64.55
2023-05-09T17:48:51.630Z,65.17
2023-05-09T17:51:18.200Z,65.91
2023-05-09T17:53:44.979Z,66.67
2023-05-09T17:56:11.850Z,68.07
2023-05-09T17:58:38.423Z,66.19
2023-05-09T18:01:05.410Z,66.48
2023-05-09T18:03:32.380Z,64.30
2023-05-09T18:06:00.268Z,65.74
2023-05-09T18:08:26.850Z,67.63
2023-05-09T18:10:54.648Z,66.19
2023-05-09T18:13:24.243Z,66.82
2023-05-09T18:15:50.895Z,67.20
2023-05-09T18:18:17.474Z,67.28
2023-05-09T18:20:46.254Z,66.91
2023-05-09T18:23:14.448Z,67.37
2023-05-09T18:25:41.857Z,66.31
2023-05-09T18:28:08.364Z,66.14
2023-05-09T18:30:36.123Z,66.00
2023-05-09T18:33:02.709Z,67.04
2023-05-09T18:35:29.345Z,66.95
2023-05-09T18:37:55.870Z,66.53
2023-05-09T18:40:22.364Z,66.52
2023-05-09T18:42:48.828Z,67.44
2023-05-09T18:45:15.833Z,68.17
2023-05-09T18:47:42.371Z,67.22
2023-05-09T18:50:09.278Z,69.03
2023-05-09T18:52:35.780Z,68.40
2023-05-09T18:55:02.263Z,68.62
2023-05-09T18:57:29.109Z,67.90
2023-05-09T18:59:55.988Z,66.78
2023-05-09T19:02:23.515Z,66.81
2023-05-09T19:04:51.441Z,67.01
2023-05-09T19:07:17.991Z,67.08
2023-05-09T19:09:44.489Z,66.45
2023-05-09T19:12:10.958Z,67.33
2023-05-09T19:14:37.989Z,67.05
2023-05-09T19:17:05.587Z,67.02
2023-05-09T19:19:32.288Z,67.43
2023-05-09T19:21:58.765Z,67.32
2023-05-09T19:24:25.266Z,65.76
2023-05-09T19:26:51.758Z,67.07
2023-05-09T19:29:18.251Z,65.48
2023-05-09T19:31:45.132Z,64.72
2023-05-09T19:34:11.607Z,65.33
2023-05-09T19:36:38.114Z,64.25
2023-05-09T19:39:05.426Z,65.08
2023-05-09T19:41:32.152Z,63.62
2023-05-09T19:43:59.332Z,63.63
2023-05-09T19:46:25.892Z,62.70
2023-05-09T19:48:52.367Z,62.50
2023-05-09T19:51:19.024Z,62.19
2023-05-09T19:53:46.796Z,62.82
2023-05-09T19:56:13.768Z,60.79
2023-05-09T19:58:40.332Z,60.83
2023-05-09T20:01:07.232Z,60.12
2023-05-09T20:03:35.200Z,61.68
2023-05-09T20:06:02.364Z,61.67
2023-05-09T20:08:29.536Z,59.83
2023-05-09T20:10:57.302Z,60.53
2023-05-09T20:13:23.854Z,60.49
2023-05-09T20:15:50.419Z,61.07
2023-05-09T20:18:16.995Z,59.75
2023-05-09T20:20:43.457Z,60.62
2023-05-09T20:23:10.034Z,60.34
2023-05-09T20:25:36.540Z,64.28
2023-05-09T20:28:03.081Z,65.75
2023-05-09T20:30:29.572Z,60.45
2023-05-09T20:32:58.446Z,67.28
2023-05-09T20:35:25.052Z,65.30
2023-05-09T20:37:51.559Z,62.85
2023-05-09T20:40:18.178Z,61.77
2023-05-09T20:42:44.789Z,60.27
2023-05-09T20:45:11.376Z,60.26
2023-05-09T20:47:39.428Z,57.68
2023-05-09T20:50:06.744Z,59.73
2023-05-09T20:52:33.225Z,62.61
2023-05-09T20:54:59.699Z,63.90
2023-05-09T20:57:26.241Z,57.68
2023-05-09T20:59:52.726Z,61.45
2023-05-09T21:02:19.259Z,65.06
2023-05-09T21:04:45.761Z,76.24
2023-05-09T21:07:12.545Z,78.25
2023-05-09T21:09:39.076Z,77.61
2023-05-09T21:12:05.708Z,71.89
2023-05-09T21:14:32.277Z,86.09
2023-05-09T21:16:58.803Z,100.00
2023-05-09T21:19:25.337Z,100.00
2023-05-09T21:21:51.825Z,100.00
2023-05-09T21:24:18.316Z,100.00
2023-05-09T21:26:44.795Z,100.00
2023-05-09T21:29:11.357Z,100.00
2023-05-09T21:31:37.985Z,100.00
2023-05-09T21:34:09.826Z,100.00
2023-05-09T21:36:38.321Z,100.00
2023-05-09T21:39:10.821Z,100.00
2023-05-09T21:41:38.072Z,100.00
2023-05-09T21:44:04.780Z,100.00
2023-05-09T21:46:31.989Z,100.00
2023-05-09T21:48:59.374Z,100.00
2023-05-09T21:51:25.888Z,100.00
2023-05-09T21:53:52.386Z,100.00
2023-05-09T21:56:18.870Z,100.00
2023-05-09T21:58:45.397Z,100.00
2023-05-09T22:01:11.871Z,100.00
2023-05-09T22:03:38.408Z,100.00
2023-05-09T22:06:05.019Z,100.00
2023-05-09T22:08:31.506Z,100.00
2023-05-09T22:10:57.993Z,100.00
2023-05-09T22:13:24.530Z,100.00
2023-05-09T22:15:51.134Z,100.00
2023-05-09T22:18:17.606Z,100.00
2023-05-09T22:20:44.206Z,100.00
2023-05-09T22:23:10.680Z,100.00
2023-05-09T22:25:37.162Z,100.00
2023-05-09T22:28:03.832Z,100.00
2023-05-09T22:30:30.361Z,100.00
2023-05-09T22:32:58.653Z,100.00
2023-05-09T22:35:25.538Z,100.00
2023-05-09T22:37:52.011Z,100.00
2023-05-09T22:40:18.553Z,100.00
2023-05-09T22:42:45.084Z,100.00
2023-05-09T22:45:11.560Z,100.00
2023-05-09T22:47:38.194Z,100.00
2023-05-09T22:50:05.054Z,100.00
2023-05-09T22:52:31.619Z,100.00
2023-05-09T22:54:58.164Z,100.00
2023-05-09T22:57:24.629Z,100.00
2023-05-09T22:59:51.207Z,100.00
2023-05-09T23:02:17.728Z,100.00
2023-05-09T23:04:44.241Z,100.00
2023-05-09T23:07:10.807Z,100.00
2023-05-09T23:09:37.309Z,100.00
2023-05-09T23:12:04.348Z,100.00
2023-05-09T23:14:31.371Z,100.00
2023-05-09T23:16:57.945Z,100.00
2023-05-09T23:19:24.416Z,100.00
2023-05-09T23:21:50.990Z,100.00
2023-05-09T23:24:17.524Z,100.00
2023-05-09T23:26:43.997Z,100.00
2023-05-09T23:29:10.471Z,100.00
2023-05-09T23:31:37.050Z,100.00
2023-05-09T23:34:03.565Z,100.00
2023-05-09T23:36:30.075Z,100.00
2023-05-09T23:38:56.599Z,100.00
2023-05-09T23:41:23.084Z,100.00
2023-05-09T23:43:49.550Z,100.00
2023-05-09T23:46:16.066Z,100.00
2023-05-09T23:48:42.580Z,100.00
2023-05-09T23:51:09.086Z,100.00
2023-05-09T23:53:35.574Z,100.00
2023-05-09T23:56:02.825Z,100.00
2023-05-09T23:58:29.345Z,100.00
